sensor_id;sensor_type;location;lat;lon;timestamp;temperature;humidity
25138;DHT22;13112;50.986;4.354;2023-02-28T00:00:51;1.80;99.90
25138;DHT22;13112;50.986;4.354;2023-02-28T00:03:17;1.80;99.90
25138;DHT22;13112;50.986;4.354;2023-02-28T00:05:43;1.90;99.90
25138;DHT22;13112;50.986;4.354;2023-02-28T00:08:09;1.90;99.90
25138;DHT22;13112;50.986;4.354;2023-02-28T00:10:34;1.90;99.90
25138;DHT22;13112;50.986;4.354;2023-02-28T00:13:03;1.90;99.90
25138;DHT22;13112;50.986;4.354;2023-02-28T00:15:30;1.90;99.90
25138;DHT22;13112;50.986;4.354;2023-02-28T00:17:56;1.80;99.90
25138;DHT22;13112;50.986;4.354;2023-02-28T00:20:22;1.70;99.90
25138;DHT22;13112;50.986;4.354;2023-02-28T00:22:50;1.70;99.90
25138;DHT22;13112;50.986;4.354;2023-02-28T00:25:21;1.70;99.90
25138;DHT22;13112;50.986;4.354;2023-02-28T00:27:48;1.70;99.90
25138;DHT22;13112;50.986;4.354;2023-02-28T00:30:19;1.70;99.90
25138;DHT22;13112;50.986;4.354;2023-02-28T00:32:45;1.70;99.90
25138;DHT22;13112;50.986;4.354;2023-02-28T00:35:11;1.70;99.90
25138;DHT22;13112;50.986;4.354;2023-02-28T00:37:37;1.60;99.90
25138;DHT22;13112;50.986;4.354;2023-02-28T00:40:03;1.60;99.90
25138;DHT22;13112;50.986;4.354;2023-02-28T00:42:33;1.60;99.90
25138;DHT22;13112;50.986;4.354;2023-02-28T00:44:59;1.60;99.90
25138;DHT22;13112;50.986;4.354;2023-02-28T00:47:25;1.60;99.90
25138;DHT22;13112;50.986;4.354;2023-02-28T00:49:51;1.60;99.90
25138;DHT22;13112;50.986;4.354;2023-02-28T00:52:17;1.50;99.90
25138;DHT22;13112;50.986;4.354;2023-02-28T00:54:42;1.40;99.90
25138;DHT22;13112;50.986;4.354;2023-02-28T00:57:08;1.50;99.90
25138;DHT22;13112;50.986;4.354;2023-02-28T00:59:34;1.50;99.90
25138;DHT22;13112;50.986;4.354;2023-02-28T01:02:00;1.40;99.90
25138;DHT22;13112;50.986;4.354;2023-02-28T01:04:25;1.40;99.90
25138;DHT22;13112;50.986;4.354;2023-02-28T01:06:51;1.40;99.90
25138;DHT22;13112;50.986;4.354;2023-02-28T01:09:17;1.30;99.90
25138;DHT22;13112;50.986;4.354;2023-02-28T01:11:43;1.30;99.90
25138;DHT22;13112;50.986;4.354;2023-02-28T01:14:15;1.30;99.90
25138;DHT22;13112;50.986;4.354;2023-02-28T01:16:42;1.30;99.90
25138;DHT22;13112;50.986;4.354;2023-02-28T01:19:08;1.40;99.90
25138;DHT22;13112;50.986;4.354;2023-02-28T01:21:34;1.50;99.90
25138;DHT22;13112;50.986;4.354;2023-02-28T01:24:00;1.60;99.90
25138;DHT22;13112;50.986;4.354;2023-02-28T01:26:26;1.60;99.90
25138;DHT22;13112;50.986;4.354;2023-02-28T01:28:53;1.50;99.90
25138;DHT22;13112;50.986;4.354;2023-02-28T01:31:20;1.50;99.90
25138;DHT22;13112;50.986;4.354;2023-02-28T01:33:46;1.50;99.90
25138;DHT22;13112;50.986;4.354;2023-02-28T01:36:21;1.40;99.90
25138;DHT22;13112;50.986;4.354;2023-02-28T01:38:47;1.40;99.90
25138;DHT22;13112;50.986;4.354;2023-02-28T01:41:23;1.40;99.90
25138;DHT22;13112;50.986;4.354;2023-02-28T01:46:15;1.30;99.90
25138;DHT22;13112;50.986;4.354;2023-02-28T01:48:45;1.30;99.90
25138;DHT22;13112;50.986;4.354;2023-02-28T01:51:16;1.30;99.90
25138;DHT22;13112;50.986;4.354;2023-02-28T01:53:47;1.30;99.90
25138;DHT22;13112;50.986;4.354;2023-02-28T01:56:17;1.30;99.90
25138;DHT22;13112;50.986;4.354;2023-02-28T01:58:50;1.30;99.90
25138;DHT22;13112;50.986;4.354;2023-02-28T02:01:17;1.20;99.90
25138;DHT22;13112;50.986;4.354;2023-02-28T02:03:48;1.20;99.90
25138;DHT22;13112;50.986;4.354;2023-02-28T02:06:37;1.20;99.90
25138;DHT22;13112;50.986;4.354;2023-02-28T02:09:03;1.30;99.90
25138;DHT22;13112;50.986;4.354;2023-02-28T02:11:29;1.20;99.90
25138;DHT22;13112;50.986;4.354;2023-02-28T02:17:17;1.10;99.90
25138;DHT22;13112;50.986;4.354;2023-02-28T02:22:43;1.00;99.90
25138;DHT22;13112;50.986;4.354;2023-02-28T02:36:12;1.00;99.90
25138;DHT22;13112;50.986;4.354;2023-02-28T02:38:54;1.00;99.90
25138;DHT22;13112;50.986;4.354;2023-02-28T02:41:52;0.90;99.90
25138;DHT22;13112;50.986;4.354;2023-02-28T02:44:26;0.90;99.90
25138;DHT22;13112;50.986;4.354;2023-02-28T02:47:01;0.90;99.90
25138;DHT22;13112;50.986;4.354;2023-02-28T02:49:31;0.90;99.90
25138;DHT22;13112;50.986;4.354;2023-02-28T02:52:03;0.90;99.90
25138;DHT22;13112;50.986;4.354;2023-02-28T02:54:35;0.90;99.90
25138;DHT22;13112;50.986;4.354;2023-02-28T02:57:06;0.80;99.90
25138;DHT22;13112;50.986;4.354;2023-02-28T02:59:36;0.80;99.90
25138;DHT22;13112;50.986;4.354;2023-02-28T03:02:06;0.70;99.90
25138;DHT22;13112;50.986;4.354;2023-02-28T03:04:40;0.70;99.90
25138;DHT22;13112;50.986;4.354;2023-02-28T03:07:07;0.70;99.90
25138;DHT22;13112;50.986;4.354;2023-02-28T03:09:34;0.60;99.90
25138;DHT22;13112;50.986;4.354;2023-02-28T03:12:01;0.60;99.90
25138;DHT22;13112;50.986;4.354;2023-02-28T03:21:12;0.50;99.90
25138;DHT22;13112;50.986;4.354;2023-02-28T03:23:23;0.60;99.90
25138;DHT22;13112;50.986;4.354;2023-02-28T03:26:01;0.60;99.90
25138;DHT22;13112;50.986;4.354;2023-02-28T03:28:45;0.60;99.90
25138;DHT22;13112;50.986;4.354;2023-02-28T03:31:39;0.50;99.90
25138;DHT22;13112;50.986;4.354;2023-02-28T03:36:57;0.40;99.90
25138;DHT22;13112;50.986;4.354;2023-02-28T03:39:30;0.20;99.90
25138;DHT22;13112;50.986;4.354;2023-02-28T03:42:03;0.10;99.90
25138;DHT22;13112;50.986;4.354;2023-02-28T03:44:37;0.10;99.90
25138;DHT22;13112;50.986;4.354;2023-02-28T03:47:14;0.00;99.90
25138;DHT22;13112;50.986;4.354;2023-02-28T03:49:46;0.00;99.90
25138;DHT22;13112;50.986;4.354;2023-02-28T03:52:14;0.00;99.90
25138;DHT22;13112;50.986;4.354;2023-02-28T03:54:44;0.20;99.90
25138;DHT22;13112;50.986;4.354;2023-02-28T03:57:23;0.20;99.90
25138;DHT22;13112;50.986;4.354;2023-02-28T04:00:02;0.30;99.90
25138;DHT22;13112;50.986;4.354;2023-02-28T04:02:31;0.30;99.90
25138;DHT22;13112;50.986;4.354;2023-02-28T04:04:57;0.30;99.90
25138;DHT22;13112;50.986;4.354;2023-02-28T04:07:24;0.20;99.90
25138;DHT22;13112;50.986;4.354;2023-02-28T04:09:49;0.20;99.90
25138;DHT22;13112;50.986;4.354;2023-02-28T04:12:15;0.20;99.90
25138;DHT22;13112;50.986;4.354;2023-02-28T04:14:40;0.20;99.90
25138;DHT22;13112;50.986;4.354;2023-02-28T04:17:06;0.30;99.90
25138;DHT22;13112;50.986;4.354;2023-02-28T04:19:32;0.20;99.90
25138;DHT22;13112;50.986;4.354;2023-02-28T04:21:58;0.30;99.90
25138;DHT22;13112;50.986;4.354;2023-02-28T04:24:26;0.20;99.90
25138;DHT22;13112;50.986;4.354;2023-02-28T04:26:54;0.30;99.90
25138;DHT22;13112;50.986;4.354;2023-02-28T04:29:26;0.10;99.90
25138;DHT22;13112;50.986;4.354;2023-02-28T04:31:53;0.10;99.90
25138;DHT22;13112;50.986;4.354;2023-02-28T04:34:19;0.20;99.90
25138;DHT22;13112;50.986;4.354;2023-02-28T04:36:46;0.00;99.90
25138;DHT22;13112;50.986;4.354;2023-02-28T04:39:15;0.00;99.90
25138;DHT22;13112;50.986;4.354;2023-02-28T04:41:41;0.10;99.90
25138;DHT22;13112;50.986;4.354;2023-02-28T04:44:06;0.20;99.90
25138;DHT22;13112;50.986;4.354;2023-02-28T04:46:32;0.40;99.90
25138;DHT22;13112;50.986;4.354;2023-02-28T04:48:58;0.50;99.90
25138;DHT22;13112;50.986;4.354;2023-02-28T04:51:24;0.60;99.90
25138;DHT22;13112;50.986;4.354;2023-02-28T04:53:50;0.70;99.90
25138;DHT22;13112;50.986;4.354;2023-02-28T04:56:17;0.90;99.90
25138;DHT22;13112;50.986;4.354;2023-02-28T04:58:44;1.00;99.90
25138;DHT22;13112;50.986;4.354;2023-02-28T05:01:22;1.20;99.90
25138;DHT22;13112;50.986;4.354;2023-02-28T05:03:49;1.20;99.90
25138;DHT22;13112;50.986;4.354;2023-02-28T05:06:15;1.30;99.90
25138;DHT22;13112;50.986;4.354;2023-02-28T05:08:41;1.40;99.90
25138;DHT22;13112;50.986;4.354;2023-02-28T05:11:14;1.40;99.90
25138;DHT22;13112;50.986;4.354;2023-02-28T05:13:40;1.50;99.90
25138;DHT22;13112;50.986;4.354;2023-02-28T05:16:06;1.60;99.90
25138;DHT22;13112;50.986;4.354;2023-02-28T05:18:31;1.60;99.90
25138;DHT22;13112;50.986;4.354;2023-02-28T05:20:57;1.60;99.90
25138;DHT22;13112;50.986;4.354;2023-02-28T05:23:23;1.60;99.90
25138;DHT22;13112;50.986;4.354;2023-02-28T05:25:49;1.80;99.90
25138;DHT22;13112;50.986;4.354;2023-02-28T05:28:14;1.80;99.90
25138;DHT22;13112;50.986;4.354;2023-02-28T05:30:40;1.70;99.90
25138;DHT22;13112;50.986;4.354;2023-02-28T05:33:06;1.80;99.90
25138;DHT22;13112;50.986;4.354;2023-02-28T05:35:31;1.90;99.90
25138;DHT22;13112;50.986;4.354;2023-02-28T05:37:57;1.90;99.90
25138;DHT22;13112;50.986;4.354;2023-02-28T05:40:23;2.00;99.90
25138;DHT22;13112;50.986;4.354;2023-02-28T05:42:50;2.00;99.90
25138;DHT22;13112;50.986;4.354;2023-02-28T05:45:16;2.00;99.90
25138;DHT22;13112;50.986;4.354;2023-02-28T05:47:42;2.10;99.90
25138;DHT22;13112;50.986;4.354;2023-02-28T05:50:08;2.10;99.90
25138;DHT22;13112;50.986;4.354;2023-02-28T05:52:36;2.20;99.90
25138;DHT22;13112;50.986;4.354;2023-02-28T05:55:02;2.20;99.90
25138;DHT22;13112;50.986;4.354;2023-02-28T05:57:27;2.10;99.90
25138;DHT22;13112;50.986;4.354;2023-02-28T05:59:53;2.20;99.90
25138;DHT22;13112;50.986;4.354;2023-02-28T06:02:19;2.30;99.90
25138;DHT22;13112;50.986;4.354;2023-02-28T06:04:45;2.20;99.90
25138;DHT22;13112;50.986;4.354;2023-02-28T06:07:11;2.20;99.90
25138;DHT22;13112;50.986;4.354;2023-02-28T06:09:37;2.20;99.90
25138;DHT22;13112;50.986;4.354;2023-02-28T06:12:04;2.30;99.90
25138;DHT22;13112;50.986;4.354;2023-02-28T06:14:35;2.30;99.90
25138;DHT22;13112;50.986;4.354;2023-02-28T06:17:03;2.30;99.90
25138;DHT22;13112;50.986;4.354;2023-02-28T06:19:28;2.30;99.90
25138;DHT22;13112;50.986;4.354;2023-02-28T06:21:56;2.30;99.90
25138;DHT22;13112;50.986;4.354;2023-02-28T06:24:23;2.30;99.90
25138;DHT22;13112;50.986;4.354;2023-02-28T06:26:49;2.30;99.90
25138;DHT22;13112;50.986;4.354;2023-02-28T06:29:15;2.30;99.90
25138;DHT22;13112;50.986;4.354;2023-02-28T06:31:45;2.30;99.90
25138;DHT22;13112;50.986;4.354;2023-02-28T06:34:11;2.40;99.90
25138;DHT22;13112;50.986;4.354;2023-02-28T06:36:38;2.30;99.90
25138;DHT22;13112;50.986;4.354;2023-02-28T06:39:04;2.30;99.90
25138;DHT22;13112;50.986;4.354;2023-02-28T06:41:30;2.20;99.90
25138;DHT22;13112;50.986;4.354;2023-02-28T06:43:56;2.30;99.90
25138;DHT22;13112;50.986;4.354;2023-02-28T06:46:22;2.40;99.90
25138;DHT22;13112;50.986;4.354;2023-02-28T06:48:48;2.50;99.90
25138;DHT22;13112;50.986;4.354;2023-02-28T06:51:18;2.60;99.90
25138;DHT22;13112;50.986;4.354;2023-02-28T06:53:45;2.70;99.90
25138;DHT22;13112;50.986;4.354;2023-02-28T06:56:13;2.70;99.90
25138;DHT22;13112;50.986;4.354;2023-02-28T06:58:39;2.70;99.90
25138;DHT22;13112;50.986;4.354;2023-02-28T07:01:06;2.80;99.90
25138;DHT22;13112;50.986;4.354;2023-02-28T07:03:32;2.80;99.90
25138;DHT22;13112;50.986;4.354;2023-02-28T07:05:58;2.80;99.90
25138;DHT22;13112;50.986;4.354;2023-02-28T07:08:24;2.80;99.90
25138;DHT22;13112;50.986;4.354;2023-02-28T07:10:55;2.90;99.90
25138;DHT22;13112;50.986;4.354;2023-02-28T07:13:23;3.00;99.90
25138;DHT22;13112;50.986;4.354;2023-02-28T07:15:56;3.20;99.90
25138;DHT22;13112;50.986;4.354;2023-02-28T07:18:22;3.40;99.90
25138;DHT22;13112;50.986;4.354;2023-02-28T07:20:48;3.60;99.90
25138;DHT22;13112;50.986;4.354;2023-02-28T07:23:13;3.80;99.90
25138;DHT22;13112;50.986;4.354;2023-02-28T07:25:39;4.00;99.90
25138;DHT22;13112;50.986;4.354;2023-02-28T07:28:04;4.20;99.90
25138;DHT22;13112;50.986;4.354;2023-02-28T07:30:30;4.40;99.90
25138;DHT22;13112;50.986;4.354;2023-02-28T07:32:56;4.60;99.90
25138;DHT22;13112;50.986;4.354;2023-02-28T07:35:22;4.90;99.90
25138;DHT22;13112;50.986;4.354;2023-02-28T07:37:48;4.80;99.90
25138;DHT22;13112;50.986;4.354;2023-02-28T07:40:14;4.80;99.90
25138;DHT22;13112;50.986;4.354;2023-02-28T07:42:41;4.80;99.90
25138;DHT22;13112;50.986;4.354;2023-02-28T07:45:08;5.20;99.90
25138;DHT22;13112;50.986;4.354;2023-02-28T07:47:34;6.60;99.90
25138;DHT22;13112;50.986;4.354;2023-02-28T07:49:59;8.00;99.90
25138;DHT22;13112;50.986;4.354;2023-02-28T07:52:25;9.50;99.90
25138;DHT22;13112;50.986;4.354;2023-02-28T07:54:51;10.40;99.90
25138;DHT22;13112;50.986;4.354;2023-02-28T07:57:18;11.00;99.90
25138;DHT22;13112;50.986;4.354;2023-02-28T07:59:43;11.90;99.90
25138;DHT22;13112;50.986;4.354;2023-02-28T08:02:13;13.10;99.90
25138;DHT22;13112;50.986;4.354;2023-02-28T08:04:39;13.90;99.90
25138;DHT22;13112;50.986;4.354;2023-02-28T08:07:05;14.30;99.90
25138;DHT22;13112;50.986;4.354;2023-02-28T08:09:31;14.00;98.30
25138;DHT22;13112;50.986;4.354;2023-02-28T08:11:56;12.60;97.70
25138;DHT22;13112;50.986;4.354;2023-02-28T08:14:22;11.90;98.30
25138;DHT22;13112;50.986;4.354;2023-02-28T08:16:48;11.70;98.40
25138;DHT22;13112;50.986;4.354;2023-02-28T08:19:14;10.60;97.90
25138;DHT22;13112;50.986;4.354;2023-02-28T08:21:40;9.60;98.80
25138;DHT22;13112;50.986;4.354;2023-02-28T08:24:06;9.00;99.40
25138;DHT22;13112;50.986;4.354;2023-02-28T08:26:32;8.20;99.90
25138;DHT22;13112;50.986;4.354;2023-02-28T08:28:58;7.50;99.90
25138;DHT22;13112;50.986;4.354;2023-02-28T08:31:24;6.90;99.90
25138;DHT22;13112;50.986;4.354;2023-02-28T08:33:49;6.40;99.90
25138;DHT22;13112;50.986;4.354;2023-02-28T08:36:18;6.20;99.90
25138;DHT22;13112;50.986;4.354;2023-02-28T08:38:43;6.20;99.90
25138;DHT22;13112;50.986;4.354;2023-02-28T08:41:11;6.10;99.90
25138;DHT22;13112;50.986;4.354;2023-02-28T08:43:38;5.80;99.90
25138;DHT22;13112;50.986;4.354;2023-02-28T08:46:04;5.80;99.90
25138;DHT22;13112;50.986;4.354;2023-02-28T08:48:32;5.90;99.90
25138;DHT22;13112;50.986;4.354;2023-02-28T08:51:01;5.60;99.90
25138;DHT22;13112;50.986;4.354;2023-02-28T08:53:27;5.70;99.90
25138;DHT22;13112;50.986;4.354;2023-02-28T08:56:01;6.50;99.90
25138;DHT22;13112;50.986;4.354;2023-02-28T08:58:28;8.50;99.90
25138;DHT22;13112;50.986;4.354;2023-02-28T09:00:54;10.10;99.20
25138;DHT22;13112;50.986;4.354;2023-02-28T09:03:21;10.70;96.30
25138;DHT22;13112;50.986;4.354;2023-02-28T09:05:57;11.60;94.40
25138;DHT22;13112;50.986;4.354;2023-02-28T09:08:24;13.10;93.80
25138;DHT22;13112;50.986;4.354;2023-02-28T09:10:51;13.90;90.90
25138;DHT22;13112;50.986;4.354;2023-02-28T09:13:18;13.40;88.60
25138;DHT22;13112;50.986;4.354;2023-02-28T09:15:44;12.80;88.90
25138;DHT22;13112;50.986;4.354;2023-02-28T09:18:10;13.40;90.70
25138;DHT22;13112;50.986;4.354;2023-02-28T09:20:42;13.30;88.30
25138;DHT22;13112;50.986;4.354;2023-02-28T09:23:09;13.30;84.60
25138;DHT22;13112;50.986;4.354;2023-02-28T09:25:36;13.20;86.90
25138;DHT22;13112;50.986;4.354;2023-02-28T09:28:01;13.00;82.40
25138;DHT22;13112;50.986;4.354;2023-02-28T09:30:29;12.70;80.70
25138;DHT22;13112;50.986;4.354;2023-02-28T09:32:55;11.50;80.90
25138;DHT22;13112;50.986;4.354;2023-02-28T09:35:22;11.10;84.30
25138;DHT22;13112;50.986;4.354;2023-02-28T09:37:54;11.90;83.90
25138;DHT22;13112;50.986;4.354;2023-02-28T09:40:24;12.20;80.60
25138;DHT22;13112;50.986;4.354;2023-02-28T09:42:53;12.20;79.90
25138;DHT22;13112;50.986;4.354;2023-02-28T09:45:41;12.40;80.40
25138;DHT22;13112;50.986;4.354;2023-02-28T09:48:16;13.10;79.90
25138;DHT22;13112;50.986;4.354;2023-02-28T09:50:59;13.10;78.20
25138;DHT22;13112;50.986;4.354;2023-02-28T09:53:29;12.40;78.20
25138;DHT22;13112;50.986;4.354;2023-02-28T09:56:08;11.90;80.70
25138;DHT22;13112;50.986;4.354;2023-02-28T09:58:45;12.20;80.00
25138;DHT22;13112;50.986;4.354;2023-02-28T10:07:35;15.40;72.60
25138;DHT22;13112;50.986;4.354;2023-02-28T10:09:58;15.40;71.20
25138;DHT22;13112;50.986;4.354;2023-02-28T10:12:28;15.30;71.20
25138;DHT22;13112;50.986;4.354;2023-02-28T10:14:56;16.00;68.70
25138;DHT22;13112;50.986;4.354;2023-02-28T10:17:26;16.40;67.70
25138;DHT22;13112;50.986;4.354;2023-02-28T10:22:32;16.50;65.50
25138;DHT22;13112;50.986;4.354;2023-02-28T10:25:00;16.20;67.80
25138;DHT22;13112;50.986;4.354;2023-02-28T10:27:34;16.50;62.80
25138;DHT22;13112;50.986;4.354;2023-02-28T10:30:02;14.90;63.00
25138;DHT22;13112;50.986;4.354;2023-02-28T10:32:35;14.00;63.50
25138;DHT22;13112;50.986;4.354;2023-02-28T10:35:18;13.40;65.40
25138;DHT22;13112;50.986;4.354;2023-02-28T10:37:46;12.50;66.70
25138;DHT22;13112;50.986;4.354;2023-02-28T10:43:04;12.20;67.40
25138;DHT22;13112;50.986;4.354;2023-02-28T10:45:32;12.40;66.70
25138;DHT22;13112;50.986;4.354;2023-02-28T10:48:03;13.20;65.50
25138;DHT22;13112;50.986;4.354;2023-02-28T10:56:01;13.90;64.50
25138;DHT22;13112;50.986;4.354;2023-02-28T10:59:05;14.60;63.50
25138;DHT22;13112;50.986;4.354;2023-02-28T11:01:47;14.60;61.50
25138;DHT22;13112;50.986;4.354;2023-02-28T11:06:57;16.70;59.90
25138;DHT22;13112;50.986;4.354;2023-02-28T11:09:35;17.40;56.60
25138;DHT22;13112;50.986;4.354;2023-02-28T11:12:07;16.50;56.20
25138;DHT22;13112;50.986;4.354;2023-02-28T11:14:51;15.10;57.40
25138;DHT22;13112;50.986;4.354;2023-02-28T11:17:25;14.80;59.20
25138;DHT22;13112;50.986;4.354;2023-02-28T11:19:55;14.40;59.00
25138;DHT22;13112;50.986;4.354;2023-02-28T11:22:27;14.70;59.10
25138;DHT22;13112;50.986;4.354;2023-02-28T11:24:59;14.60;57.70
25138;DHT22;13112;50.986;4.354;2023-02-28T11:29:59;17.20;58.80
25138;DHT22;13112;50.986;4.354;2023-02-28T11:32:27;15.50;57.20
25138;DHT22;13112;50.986;4.354;2023-02-28T11:37:37;15.40;57.20
25138;DHT22;13112;50.986;4.354;2023-02-28T11:40:12;15.50;60.60
25138;DHT22;13112;50.986;4.354;2023-02-28T11:45:39;16.60;56.20
25138;DHT22;13112;50.986;4.354;2023-02-28T11:48:32;16.10;55.70
25138;DHT22;13112;50.986;4.354;2023-02-28T11:51:04;16.60;56.90
25138;DHT22;13112;50.986;4.354;2023-02-28T12:10:11;19.10;51.40
25138;DHT22;13112;50.986;4.354;2023-02-28T12:15:36;18.70;49.70
25138;DHT22;13112;50.986;4.354;2023-02-28T12:18:22;18.30;50.40
25138;DHT22;13112;50.986;4.354;2023-02-28T12:21:01;19.20;50.20
25138;DHT22;13112;50.986;4.354;2023-02-28T12:26:38;18.40;50.10
25138;DHT22;13112;50.986;4.354;2023-02-28T12:29:25;17.10;49.80
25138;DHT22;13112;50.986;4.354;2023-02-28T12:34:28;16.70;52.40
25138;DHT22;13112;50.986;4.354;2023-02-28T12:37:00;17.10;51.00
25138;DHT22;13112;50.986;4.354;2023-02-28T12:39:39;17.60;52.30
25138;DHT22;13112;50.986;4.354;2023-02-28T12:42:32;17.70;50.50
25138;DHT22;13112;50.986;4.354;2023-02-28T12:45:08;16.80;50.50
25138;DHT22;13112;50.986;4.354;2023-02-28T12:47:36;17.00;49.60
25138;DHT22;13112;50.986;4.354;2023-02-28T12:50:07;17.80;50.50
25138;DHT22;13112;50.986;4.354;2023-02-28T12:58:13;19.50;49.00
25138;DHT22;13112;50.986;4.354;2023-02-28T13:00:57;18.40;47.20
25138;DHT22;13112;50.986;4.354;2023-02-28T13:06:34;16.20;48.70
25138;DHT22;13112;50.986;4.354;2023-02-28T13:09:14;15.90;50.60
25138;DHT22;13112;50.986;4.354;2023-02-28T13:11:48;16.40;50.30
25138;DHT22;13112;50.986;4.354;2023-02-28T13:19:35;18.00;48.10
25138;DHT22;13112;50.986;4.354;2023-02-28T13:22:02;17.10;47.90
25138;DHT22;13112;50.986;4.354;2023-02-28T13:40:00;15.80;51.70
25138;DHT22;13112;50.986;4.354;2023-02-28T13:47:40;14.40;52.80
25138;DHT22;13112;50.986;4.354;2023-02-28T13:50:38;14.80;53.20
25138;DHT22;13112;50.986;4.354;2023-02-28T13:56:19;13.00;54.10
25138;DHT22;13112;50.986;4.354;2023-02-28T14:02:37;13.50;54.50
25138;DHT22;13112;50.986;4.354;2023-02-28T14:05:15;12.70;54.60
25138;DHT22;13112;50.986;4.354;2023-02-28T14:07:49;13.00;55.30
25138;DHT22;13112;50.986;4.354;2023-02-28T14:10:37;12.70;55.50
25138;DHT22;13112;50.986;4.354;2023-02-28T14:13:36;13.40;54.70
25138;DHT22;13112;50.986;4.354;2023-02-28T14:16:00;14.00;54.60
25138;DHT22;13112;50.986;4.354;2023-02-28T14:18:37;14.00;53.50
25138;DHT22;13112;50.986;4.354;2023-02-28T14:26:56;11.70;55.80
25138;DHT22;13112;50.986;4.354;2023-02-28T14:32:03;9.30;62.00
25138;DHT22;13112;50.986;4.354;2023-02-28T14:34:44;8.90;63.40
25138;DHT22;13112;50.986;4.354;2023-02-28T14:37:16;8.20;65.90
25138;DHT22;13112;50.986;4.354;2023-02-28T14:39:44;8.40;65.70
25138;DHT22;13112;50.986;4.354;2023-02-28T14:44:55;7.90;66.60
25138;DHT22;13112;50.986;4.354;2023-02-28T14:47:28;8.30;67.80
25138;DHT22;13112;50.986;4.354;2023-02-28T14:49:57;8.60;67.20
25138;DHT22;13112;50.986;4.354;2023-02-28T14:52:29;9.00;67.40
25138;DHT22;13112;50.986;4.354;2023-02-28T14:55:04;8.70;65.80
25138;DHT22;13112;50.986;4.354;2023-02-28T14:57:34;9.70;66.00
25138;DHT22;13112;50.986;4.354;2023-02-28T15:00:12;10.30;63.10
25138;DHT22;13112;50.986;4.354;2023-02-28T15:02:39;10.80;63.60
25138;DHT22;13112;50.986;4.354;2023-02-28T15:07:44;12.70;59.00
25138;DHT22;13112;50.986;4.354;2023-02-28T15:10:24;12.50;59.10
25138;DHT22;13112;50.986;4.354;2023-02-28T15:12:53;11.70;59.00
25138;DHT22;13112;50.986;4.354;2023-02-28T15:15:22;11.50;60.20
25138;DHT22;13112;50.986;4.354;2023-02-28T15:17:53;11.80;60.60
25138;DHT22;13112;50.986;4.354;2023-02-28T15:20:20;11.70;60.70
25138;DHT22;13112;50.986;4.354;2023-02-28T15:22:49;11.60;59.40
25138;DHT22;13112;50.986;4.354;2023-02-28T15:25:20;10.90;61.30
25138;DHT22;13112;50.986;4.354;2023-02-28T15:27:52;10.50;63.50
25138;DHT22;13112;50.986;4.354;2023-02-28T15:30:28;11.30;63.00
25138;DHT22;13112;50.986;4.354;2023-02-28T15:35:44;10.30;63.20
25138;DHT22;13112;50.986;4.354;2023-02-28T15:38:14;9.20;65.80
25138;DHT22;13112;50.986;4.354;2023-02-28T15:40:43;8.60;68.10
25138;DHT22;13112;50.986;4.354;2023-02-28T15:43:17;8.00;69.50
25138;DHT22;13112;50.986;4.354;2023-02-28T15:45:48;7.50;70.60
25138;DHT22;13112;50.986;4.354;2023-02-28T15:48:27;7.20;72.20
25138;DHT22;13112;50.986;4.354;2023-02-28T15:53:35;6.70;73.40
25138;DHT22;13112;50.986;4.354;2023-02-28T15:56:06;6.60;73.30
25138;DHT22;13112;50.986;4.354;2023-02-28T15:58:35;6.70;74.60
25138;DHT22;13112;50.986;4.354;2023-02-28T16:01:15;6.80;74.20
25138;DHT22;13112;50.986;4.354;2023-02-28T16:03:48;6.90;75.20
25138;DHT22;13112;50.986;4.354;2023-02-28T16:08:58;6.50;74.50
25138;DHT22;13112;50.986;4.354;2023-02-28T16:11:23;6.20;76.80
25138;DHT22;13112;50.986;4.354;2023-02-28T16:13:50;6.30;78.10
25138;DHT22;13112;50.986;4.354;2023-02-28T16:16:22;6.40;77.80
25138;DHT22;13112;50.986;4.354;2023-02-28T16:18:49;6.50;77.30
25138;DHT22;13112;50.986;4.354;2023-02-28T16:21:15;6.40;77.30
25138;DHT22;13112;50.986;4.354;2023-02-28T16:23:41;6.40;76.70
25138;DHT22;13112;50.986;4.354;2023-02-28T16:26:08;6.30;76.30
25138;DHT22;13112;50.986;4.354;2023-02-28T16:28:36;6.20;77.50
25138;DHT22;13112;50.986;4.354;2023-02-28T16:31:05;6.30;78.30
25138;DHT22;13112;50.986;4.354;2023-02-28T16:33:32;6.20;78.30
25138;DHT22;13112;50.986;4.354;2023-02-28T16:35:59;6.30;77.60
25138;DHT22;13112;50.986;4.354;2023-02-28T16:38:25;6.30;78.10
25138;DHT22;13112;50.986;4.354;2023-02-28T16:40:52;6.20;78.20
25138;DHT22;13112;50.986;4.354;2023-02-28T16:43:22;6.00;79.20
25138;DHT22;13112;50.986;4.354;2023-02-28T16:45:48;5.80;79.40
25138;DHT22;13112;50.986;4.354;2023-02-28T16:48:15;5.70;80.40
25138;DHT22;13112;50.986;4.354;2023-02-28T16:50:42;5.60;81.50
25138;DHT22;13112;50.986;4.354;2023-02-28T16:53:09;5.60;81.80
25138;DHT22;13112;50.986;4.354;2023-02-28T16:55:35;5.60;81.10
25138;DHT22;13112;50.986;4.354;2023-02-28T16:58:02;5.50;81.50
25138;DHT22;13112;50.986;4.354;2023-02-28T17:00:30;5.50;81.90
25138;DHT22;13112;50.986;4.354;2023-02-28T17:02:57;5.40;82.00
25138;DHT22;13112;50.986;4.354;2023-02-28T17:05:25;5.40;82.00
25138;DHT22;13112;50.986;4.354;2023-02-28T17:07:51;5.40;82.50
25138;DHT22;13112;50.986;4.354;2023-02-28T17:10:18;5.30;83.30
25138;DHT22;13112;50.986;4.354;2023-02-28T17:12:44;5.30;83.30
25138;DHT22;13112;50.986;4.354;2023-02-28T17:15:12;5.40;83.50
25138;DHT22;13112;50.986;4.354;2023-02-28T17:17:40;5.30;84.10
25138;DHT22;13112;50.986;4.354;2023-02-28T17:20:07;5.20;84.90
25138;DHT22;13112;50.986;4.354;2023-02-28T17:22:32;5.10;85.50
25138;DHT22;13112;50.986;4.354;2023-02-28T17:24:58;5.00;86.50
25138;DHT22;13112;50.986;4.354;2023-02-28T17:27:24;5.00;87.10
25138;DHT22;13112;50.986;4.354;2023-02-28T17:29:50;5.00;88.00
25138;DHT22;13112;50.986;4.354;2023-02-28T17:32:16;5.10;87.90
25138;DHT22;13112;50.986;4.354;2023-02-28T17:34:42;5.20;88.50
25138;DHT22;13112;50.986;4.354;2023-02-28T17:37:09;5.10;88.10
25138;DHT22;13112;50.986;4.354;2023-02-28T17:39:35;5.10;88.00
25138;DHT22;13112;50.986;4.354;2023-02-28T17:42:01;5.00;88.70
25138;DHT22;13112;50.986;4.354;2023-02-28T17:44:27;4.90;89.40
25138;DHT22;13112;50.986;4.354;2023-02-28T17:46:54;4.90;89.90
25138;DHT22;13112;50.986;4.354;2023-02-28T17:49:20;4.80;90.10
25138;DHT22;13112;50.986;4.354;2023-02-28T17:51:47;4.80;90.70
25138;DHT22;13112;50.986;4.354;2023-02-28T17:54:13;4.80;90.70
25138;DHT22;13112;50.986;4.354;2023-02-28T17:56:39;4.80;91.80
25138;DHT22;13112;50.986;4.354;2023-02-28T17:59:05;4.70;92.40
25138;DHT22;13112;50.986;4.354;2023-02-28T18:01:33;4.70;92.50
25138;DHT22;13112;50.986;4.354;2023-02-28T18:03:59;4.60;93.30
25138;DHT22;13112;50.986;4.354;2023-02-28T18:06:29;4.50;93.80
25138;DHT22;13112;50.986;4.354;2023-02-28T18:08:56;4.50;94.50
25138;DHT22;13112;50.986;4.354;2023-02-28T18:11:22;4.40;95.20
25138;DHT22;13112;50.986;4.354;2023-02-28T18:13:51;4.30;95.70
25138;DHT22;13112;50.986;4.354;2023-02-28T18:16:19;4.20;96.40
25138;DHT22;13112;50.986;4.354;2023-02-28T18:18:46;4.20;97.30
25138;DHT22;13112;50.986;4.354;2023-02-28T18:21:13;4.10;97.70